createdAt,value
2022-08-16T00:04:59.929Z,2.40
2022-08-16T00:10:03.532Z,2.72
2022-08-16T00:15:13.809Z,3.35
2022-08-16T00:20:21.055Z,2.40
2022-08-16T00:26:33.732Z,2.00
2022-08-16T00:30:46.591Z,2.53
2022-08-16T00:35:48.971Z,3.92
2022-08-16T00:40:54.069Z,4.43
2022-08-16T00:46:22.268Z,2.40
2022-08-16T00:51:29.404Z,3.50
2022-08-16T00:56:56.299Z,3.10
2022-08-16T01:01:57.824Z,2.38
2022-08-16T01:07:03.157Z,4.05
2022-08-16T01:12:08.378Z,2.88
2022-08-16T01:17:13.886Z,2.25
2022-08-16T01:22:47.606Z,3.58
2022-08-16T01:27:52.303Z,2.85
2022-08-16T01:33:02.348Z,2.70
2022-08-16T01:38:19.527Z,2.75
2022-08-16T01:43:23.911Z,2.88
2022-08-16T01:48:29.674Z,3.88
2022-08-16T01:53:32.120Z,3.45
2022-08-16T01:58:38.894Z,4.45
2022-08-16T02:03:51.920Z,2.60
2022-08-16T02:08:55.256Z,3.42
2022-08-16T02:13:57.426Z,2.60
2022-08-16T02:19:00.852Z,2.73
2022-08-16T02:24:31.911Z,2.03
2022-08-16T02:29:32.030Z,3.60
2022-08-16T02:34:40.412Z,4.47
2022-08-16T02:39:44.568Z,4.55
2022-08-16T02:44:47.205Z,3.50
2022-08-16T02:49:58.963Z,3.00
2022-08-16T02:55:15.768Z,2.85
2022-08-16T03:00:34.024Z,3.92
2022-08-16T03:05:38.571Z,4.75
2022-08-16T03:10:41.137Z,3.78
2022-08-16T03:15:44.458Z,3.70
2022-08-16T03:20:55.863Z,6.28
2022-08-16T03:25:59.057Z,3.88
2022-08-16T03:31:01.551Z,4.93
2022-08-16T03:36:30.078Z,3.28
2022-08-16T03:41:35.437Z,5.05
2022-08-16T03:46:52.854Z,5.60
2022-08-16T03:52:00.877Z,4.40
2022-08-16T03:57:05.818Z,3.42
2022-08-16T04:02:22.784Z,3.42
2022-08-16T04:07:34.779Z,2.47
2022-08-16T04:12:54.694Z,5.07
2022-08-16T04:18:01.987Z,4.10
2022-08-16T04:23:06.285Z,5.00
2022-08-16T04:28:51.688Z,3.75
2022-08-16T04:33:34.974Z,4.15
2022-08-16T04:38:37.272Z,3.42
2022-08-16T04:43:43.588Z,2.77
2022-08-16T04:48:48.541Z,3.50
2022-08-16T04:53:52.649Z,4.15
2022-08-16T04:58:57.593Z,2.40
2022-08-16T05:04:01.763Z,4.45
2022-08-16T05:09:10.156Z,3.97
2022-08-16T05:14:12.111Z,2.85
2022-08-16T05:19:22.607Z,3.25
2022-08-16T05:24:44.848Z,3.30
2022-08-16T05:29:56.875Z,3.72
2022-08-16T05:35:00.370Z,2.40
2022-08-16T05:40:06.297Z,3.60
2022-08-16T05:45:09.645Z,3.42
2022-08-16T05:50:19.301Z,6.25
2022-08-16T05:55:22.629Z,4.03
2022-08-16T06:00:25.831Z,4.38
2022-08-16T06:05:30.978Z,3.35
2022-08-16T06:10:38.188Z,3.30
2022-08-16T06:16:00.140Z,3.60
2022-08-16T06:21:02.061Z,4.18
2022-08-16T06:26:07.374Z,7.03
2022-08-16T06:31:14.139Z,3.90
2022-08-16T06:36:21.759Z,4.80
2022-08-16T06:41:39.602Z,3.37
2022-08-16T06:46:50.631Z,4.13
2022-08-16T06:51:54.157Z,4.03
2022-08-16T06:57:16.510Z,5.22
2022-08-16T07:02:32.908Z,4.45
2022-08-16T07:07:36.868Z,4.43
2022-08-16T07:12:47.471Z,5.32
2022-08-16T07:18:03.255Z,5.60
2022-08-16T07:23:13.154Z,4.70
2022-08-16T07:28:26.308Z,4.05
2022-08-16T07:33:53.365Z,6.45
2022-08-16T07:38:55.415Z,4.45
2022-08-16T07:43:58.456Z,5.05
2022-08-16T07:49:04.324Z,7.85
2022-08-16T07:54:14.405Z,5.93
2022-08-16T07:59:24.711Z,10.18
2022-08-16T08:04:32.442Z,5.05
2022-08-16T08:09:36.217Z,4.28
2022-08-16T08:14:48.825Z,4.80
2022-08-16T08:19:55.140Z,3.20
2022-08-16T08:24:59.201Z,6.13
2022-08-16T08:30:09.187Z,4.97
2022-08-16T08:35:26.887Z,5.90
2022-08-16T08:40:30.192Z,6.07
2022-08-16T08:45:52.599Z,4.03
2022-08-16T08:50:54.900Z,5.95
2022-08-16T08:56:00.407Z,4.30
2022-08-16T09:01:31.752Z,4.15
2022-08-16T09:06:43.020Z,4.47
2022-08-16T09:11:51.100Z,5.38
2022-08-16T09:17:02.901Z,3.88
2022-08-16T09:22:20.148Z,3.45
2022-08-16T09:27:26.481Z,3.83
2022-08-16T09:32:30.885Z,5.90
2022-08-16T09:37:36.372Z,5.53
2022-08-16T09:42:55.890Z,6.28
2022-08-16T09:47:58.933Z,6.82
2022-08-16T09:53:00.784Z,5.23
2022-08-16T09:58:04.440Z,3.13
2022-08-16T10:03:09.135Z,4.18
2022-08-16T10:08:25.815Z,5.93
2022-08-16T10:13:29.856Z,4.00
2022-08-16T10:18:56.768Z,6.35
2022-08-16T10:23:56.805Z,4.30
2022-08-16T10:28:58.572Z,6.80
2022-08-16T10:34:01.850Z,4.10
2022-08-16T10:39:05.179Z,5.05
2022-08-16T10:44:10.407Z,6.57
2022-08-16T10:49:18.280Z,5.05
2022-08-16T10:54:28.409Z,5.53
2022-08-16T10:59:44.949Z,4.35
2022-08-16T11:05:10.761Z,3.42
2022-08-16T11:15:39.056Z,3.08
2022-08-16T11:20:49.411Z,4.60
2022-08-16T11:26:22.700Z,5.80
2022-08-16T11:31:13.810Z,3.63
2022-08-16T11:36:27.814Z,4.87
2022-08-16T11:41:34.015Z,4.10
2022-08-16T11:46:45.410Z,4.10
2022-08-16T11:51:50.021Z,3.70
2022-08-16T11:56:56.584Z,6.35
2022-08-16T12:02:30.763Z,3.50
2022-08-16T12:07:23.689Z,6.13
2022-08-16T12:12:28.513Z,3.58
2022-08-16T12:17:32.331Z,3.05
2022-08-16T12:22:36.770Z,6.22
2022-08-16T12:27:39.399Z,4.25
2022-08-16T12:32:42.176Z,4.30
2022-08-16T12:37:46.217Z,2.47
2022-08-16T12:42:52.897Z,3.65
2022-08-16T12:53:39.965Z,3.97
2022-08-16T12:58:48.660Z,3.10
2022-08-16T13:04:11.338Z,2.95
2022-08-16T13:09:26.014Z,2.97
2022-08-16T13:14:35.637Z,6.60
2022-08-16T13:20:06.751Z,3.50
2022-08-16T13:24:59.488Z,3.37
2022-08-16T13:30:01.318Z,2.10
2022-08-16T13:35:03.680Z,8.30
2022-08-16T13:40:07.094Z,3.13
2022-08-16T13:45:15.483Z,9.10
2022-08-16T13:50:17.716Z,4.10
2022-08-16T13:55:33.812Z,4.93
2022-08-16T14:00:36.322Z,4.90
2022-08-16T14:05:38.835Z,5.80
2022-08-16T14:10:40.639Z,3.85
2022-08-16T14:15:42.444Z,5.15
2022-08-16T14:20:48.519Z,4.85
2022-08-16T14:25:53.951Z,7.60
2022-08-16T14:30:56.684Z,3.13
2022-08-16T14:35:59.254Z,6.57
2022-08-16T14:41:01.107Z,3.88
2022-08-16T14:46:07.628Z,3.90
2022-08-16T14:51:09.592Z,12.57
2022-08-16T14:56:17.275Z,4.10
2022-08-16T15:01:57.784Z,4.63
2022-08-16T15:06:56.226Z,3.88
2022-08-16T15:12:27.151Z,2.90
2022-08-16T15:17:36.952Z,3.42
2022-08-16T15:22:44.361Z,3.67
2022-08-16T15:27:55.362Z,3.25
2022-08-16T15:33:06.390Z,1.90
2022-08-16T15:38:09.436Z,3.95
2022-08-16T15:48:41.956Z,3.55
2022-08-16T15:53:46.611Z,3.13
2022-08-16T15:59:07.655Z,4.60
2022-08-16T16:04:10.115Z,2.33
2022-08-16T16:14:15.460Z,2.00
2022-08-16T16:19:21.124Z,2.58
2022-08-16T16:24:23.996Z,5.55
2022-08-16T16:29:40.138Z,4.43
2022-08-16T16:34:43.121Z,7.15
2022-08-16T16:39:45.269Z,3.92
2022-08-16T16:44:51.023Z,3.78
2022-08-16T16:49:54.198Z,3.05
2022-08-16T16:54:57.474Z,4.70
2022-08-16T16:59:59.311Z,2.10
2022-08-16T17:05:08.604Z,2.60
2022-08-16T17:10:10.583Z,2.90
2022-08-16T17:15:12.535Z,3.58
2022-08-16T17:20:16.871Z,2.13
2022-08-16T17:25:20.969Z,3.15
2022-08-16T17:30:29.655Z,2.10
2022-08-16T17:35:54.959Z,2.30
2022-08-16T17:40:59.333Z,2.33
2022-08-16T17:46:02.333Z,3.10
2022-08-16T17:51:05.992Z,2.88
2022-08-16T17:56:09.138Z,4.13
2022-08-16T18:06:16.778Z,2.83
2022-08-16T18:11:25.952Z,2.70
2022-08-16T18:16:28.270Z,2.28
2022-08-16T18:21:48.732Z,3.00
2022-08-16T18:26:50.981Z,2.30
2022-08-16T18:31:52.768Z,3.27
2022-08-16T18:36:54.582Z,2.88
2022-08-16T18:41:56.555Z,4.25
2022-08-16T18:46:58.332Z,3.10
2022-08-16T18:52:01.362Z,2.05
2022-08-16T18:57:07.388Z,4.32
2022-08-16T19:02:09.816Z,2.65
2022-08-16T19:07:32.169Z,3.60
2022-08-16T19:12:37.804Z,3.67
2022-08-16T19:17:45.371Z,4.03
2022-08-16T19:23:05.485Z,3.08
2022-08-16T19:28:08.301Z,3.47
2022-08-16T19:33:30.380Z,5.38
2022-08-16T19:38:32.265Z,2.70
2022-08-16T19:43:34.256Z,6.00
2022-08-16T19:48:37.231Z,6.55
2022-08-16T19:53:39.034Z,2.67
2022-08-16T19:58:56.169Z,3.95
2022-08-16T20:04:03.634Z,3.72
2022-08-16T20:09:06.313Z,3.87
2022-08-16T20:14:08.179Z,5.23
2022-08-16T20:19:09.986Z,31.00
2022-08-16T20:24:32.979Z,43.10
2022-08-16T20:29:34.481Z,72.30
2022-08-16T20:34:36.341Z,58.85
2022-08-16T20:39:40.349Z,54.20
2022-08-16T20:44:42.910Z,34.42
2022-08-16T20:49:44.746Z,23.45
2022-08-16T20:54:47.213Z,14.85
2022-08-16T20:59:50.314Z,11.88
2022-08-16T21:04:52.580Z,15.80
2022-08-16T21:09:54.407Z,5.82
2022-08-16T21:14:56.178Z,3.92
2022-08-16T21:19:57.969Z,4.57
2022-08-16T21:25:00.159Z,4.20
2022-08-16T21:30:02.018Z,2.70
2022-08-16T21:35:09.333Z,4.15
2022-08-16T21:40:12.986Z,3.20
2022-08-16T21:50:16.773Z,5.25
2022-08-16T21:55:18.608Z,5.32
2022-08-16T22:00:20.469Z,3.67
2022-08-16T22:05:22.907Z,3.30
2022-08-16T22:11:05.723Z,3.65
2022-08-16T22:15:48.086Z,3.08
2022-08-16T22:20:51.006Z,4.75
2022-08-16T22:25:54.947Z,3.47
2022-08-16T22:30:56.996Z,4.05
2022-08-16T22:36:01.711Z,2.40
2022-08-16T22:41:04.801Z,3.35
2022-08-16T22:46:06.891Z,4.80
2022-08-16T22:51:09.041Z,4.45
2022-08-16T22:56:11.110Z,3.80
2022-08-16T23:01:14.728Z,3.97
2022-08-16T23:06:16.859Z,3.45
2022-08-16T23:21:37.254Z,3.03
2022-08-16T23:26:48.003Z,3.88
2022-08-16T23:31:50.841Z,2.40
2022-08-16T23:36:55.960Z,3.33
2022-08-16T23:41:58.811Z,3.20
2022-08-16T23:47:00.618Z,3.22
2022-08-16T23:52:11.805Z,5.35
2022-08-16T23:57:13.648Z,3.42
